Portada
METAR-TAF:

METAR-TAF

Aeroports :

Midway, Estats Units d'Amèrica

latitud: 28-13N, longitud: 177-22W, altitud: 4 m

Observació

L'informe es va fer fa 59 minuts, a les 03:56 UTC
Vent 18 kt del Nord-Est amb ràfegues de 23 kt
Temperatura 21°C
Humitat 56%
Pressió 1027 hPa
Visibilitat: 16.1 km

METAR: PMDY 060356Z AUTO 04018G23KT 10SM 21/12 A3033 RMK AO2 SLP273 T02060122 TSNO

Hora: 18:55 (04:55 UTC)

Pronòstic

L'informe es va fer fa 5 hores i 22 minuts, a les 23:33 UTC
Pronòstic vàlid del 06 a les 00 UTC al 06 a les 24 UTC
Vent 20 kt del Nord-Est amb ràfegues de 30 kt
Visibilitat: 10 km
Núvols disperses a una alçada de 3500 ft
Núvols disperses a una alçada de 6000 ft

TAF: PMDY 052333Z 0600/0624 04020G30KT P6SM SCT035 SCT060

Observacions i pronòstics meteorològics de més de 4000 aeroports (METAR i TAF).

Les estacions disponibles són els punts grocs i vermells al mapa.

Posi el ratolí al punt desitjat per veure el nom de l'estació.

Feu clic per veure les observacions i els pronòstics meteorològics.

Per canviar el mapa: feu clic els botons verds amb una creu de color negre per apropar; al botó verd amb un guió per allunyar la imatge; o en les fletxes verdes per a mapes adjacents.


METAR-TAF: